Log in Register

Login to your account

Username *
Password *
Remember Me

Create an account

Fields marked with an asterisk (*) are required.
Name *
Username *
Password *
Verify password *
Email *
Verify email *

Nous contacter

 Téléphone : +33 (0)4 79 54 41 81

Coordonnées détaillées et accès : cliquez ici

 
LFLB °C
    Ferienhaus Ostsee
[source: ADDS]
METAR
LFLB 151330Z AUTO 34004KT 310V020 CAVOK 29/15 Q1023 NOSIG =
TAF LFLB 151100Z 1512/1612 36005KT CAVOK PROB30 TEMPO 1603/1606 3000 MIFG
TAF
TAF LFLB 151100Z 1512/1612 36005KT CAVOK PROB30 TEMPO 1603/1606 3000 MIFG =
SR / SS: 05:14 / 17:49 UTC (Lever/Coucher du soleil le 2019-09-15)
JSN Boot template designed by JoomlaShine.com